Terminal Aerodrome Forecast
Issued by NWS

Home | Current Version | Previous Version | Text Only | Print | Product List | Glossary On
Versions: 1 2 3 4 5 6 7 8 9 10 11 12 13 14 15 16 17 18 19 20 21 22 23 24 25 26 27 28 29 30 31
888
FTUS43 KDLH 231808 AAA
TAFHYR
TAF AMD
KHYR 231808Z 2318/2418 00000KT P6SM OVC006
     FM232100 VRB03KT P6SM OVC007
     FM240200 00000KT 1/2SM FG OVC003
     FM241500 11003KT 4SM BR OVC007=

USA.gov is the U.S. government's official web portal to all federal, state and local government web resources and services.